sensor_id;sensor_type;location;lat;lon;timestamp;P1;durP1;ratioP1;P2;durP2;ratioP2
32727;SDS011;55292;51.844;19.246;2022-07-06T00:03:26;64.85;;;33.50;;
32727;SDS011;55292;51.844;19.246;2022-07-06T00:08:29;108.55;;;46.15;;
32727;SDS011;55292;51.844;19.246;2022-07-06T00:13:31;74.78;;;36.00;;
32727;SDS011;55292;51.844;19.246;2022-07-06T00:18:34;86.30;;;35.67;;
32727;SDS011;55292;51.844;19.246;2022-07-06T00:23:36;104.75;;;41.20;;
32727;SDS011;55292;51.844;19.246;2022-07-06T00:28:39;58.78;;;31.88;;
32727;SDS011;55292;51.844;19.246;2022-07-06T00:33:48;99.97;;;45.40;;
32727;SDS011;55292;51.844;19.246;2022-07-06T00:38:50;147.80;;;54.65;;
32727;SDS011;55292;51.844;19.246;2022-07-06T00:43:54;72.65;;;35.00;;
32727;SDS011;55292;51.844;19.246;2022-07-06T00:48:58;99.43;;;42.78;;
32727;SDS011;55292;51.844;19.246;2022-07-06T00:54:03;57.95;;;32.60;;
32727;SDS011;55292;51.844;19.246;2022-07-06T00:59:06;96.07;;;41.38;;
32727;SDS011;55292;51.844;19.246;2022-07-06T01:04:09;68.53;;;33.28;;
32727;SDS011;55292;51.844;19.246;2022-07-06T01:09:11;94.75;;;42.90;;
32727;SDS011;55292;51.844;19.246;2022-07-06T01:14:14;76.93;;;37.05;;
32727;SDS011;55292;51.844;19.246;2022-07-06T01:19:18;76.00;;;37.88;;
32727;SDS011;55292;51.844;19.246;2022-07-06T01:24:22;68.20;;;34.80;;
32727;SDS011;55292;51.844;19.246;2022-07-06T01:29:24;55.08;;;30.25;;
32727;SDS011;55292;51.844;19.246;2022-07-06T01:34:27;71.85;;;36.90;;
32727;SDS011;55292;51.844;19.246;2022-07-06T01:39:31;68.40;;;36.67;;
32727;SDS011;55292;51.844;19.246;2022-07-06T01:44:33;78.35;;;37.67;;
32727;SDS011;55292;51.844;19.246;2022-07-06T01:49:36;58.33;;;32.05;;
32727;SDS011;55292;51.844;19.246;2022-07-06T01:54:38;64.30;;;36.17;;
32727;SDS011;55292;51.844;19.246;2022-07-06T01:59:41;92.90;;;45.03;;
32727;SDS011;55292;51.844;19.246;2022-07-06T02:04:44;69.20;;;36.10;;
32727;SDS011;55292;51.844;19.246;2022-07-06T02:09:47;62.78;;;34.05;;
32727;SDS011;55292;51.844;19.246;2022-07-06T02:14:50;72.00;;;37.90;;
32727;SDS011;55292;51.844;19.246;2022-07-06T02:19:52;102.00;;;44.10;;
32727;SDS011;55292;51.844;19.246;2022-07-06T02:24:55;75.68;;;35.10;;
32727;SDS011;55292;51.844;19.246;2022-07-06T02:29:58;80.00;;;38.30;;
32727;SDS011;55292;51.844;19.246;2022-07-06T02:35:01;69.65;;;35.20;;
32727;SDS011;55292;51.844;19.246;2022-07-06T02:40:04;70.13;;;35.33;;
32727;SDS011;55292;51.844;19.246;2022-07-06T02:45:08;120.50;;;43.72;;
32727;SDS011;55292;51.844;19.246;2022-07-06T02:50:12;81.68;;;36.60;;
32727;SDS011;55292;51.844;19.246;2022-07-06T02:55:15;96.40;;;39.00;;
32727;SDS011;55292;51.844;19.246;2022-07-06T03:00:18;64.93;;;33.13;;
32727;SDS011;55292;51.844;19.246;2022-07-06T03:05:21;66.90;;;36.42;;
32727;SDS011;55292;51.844;19.246;2022-07-06T03:10:24;78.68;;;45.38;;
32727;SDS011;55292;51.844;19.246;2022-07-06T03:15:27;92.97;;;47.63;;
32727;SDS011;55292;51.844;19.246;2022-07-06T03:20:30;90.50;;;46.60;;
32727;SDS011;55292;51.844;19.246;2022-07-06T03:25:33;78.32;;;42.55;;
32727;SDS011;55292;51.844;19.246;2022-07-06T03:30:36;80.25;;;43.03;;
32727;SDS011;55292;51.844;19.246;2022-07-06T03:35:39;81.70;;;42.90;;
32727;SDS011;55292;51.844;19.246;2022-07-06T03:40:43;104.68;;;46.95;;
32727;SDS011;55292;51.844;19.246;2022-07-06T03:45:46;39.08;;;26.88;;
32727;SDS011;55292;51.844;19.246;2022-07-06T03:50:50;30.50;;;20.83;;
32727;SDS011;55292;51.844;19.246;2022-07-06T03:55:53;24.60;;;17.50;;
32727;SDS011;55292;51.844;19.246;2022-07-06T04:01:15;18.80;;;14.15;;
32727;SDS011;55292;51.844;19.246;2022-07-06T04:06:21;16.00;;;10.18;;
32727;SDS011;55292;51.844;19.246;2022-07-06T04:11:24;12.85;;;8.02;;
32727;SDS011;55292;51.844;19.246;2022-07-06T04:16:27;8.77;;;6.22;;
32727;SDS011;55292;51.844;19.246;2022-07-06T04:21:30;8.70;;;5.60;;
32727;SDS011;55292;51.844;19.246;2022-07-06T04:26:33;9.55;;;5.75;;
32727;SDS011;55292;51.844;19.246;2022-07-06T04:31:36;7.47;;;3.90;;
32727;SDS011;55292;51.844;19.246;2022-07-06T04:36:39;8.82;;;3.60;;
32727;SDS011;55292;51.844;19.246;2022-07-06T04:41:41;7.13;;;3.60;;
32727;SDS011;55292;51.844;19.246;2022-07-06T04:46:44;5.07;;;2.83;;
32727;SDS011;55292;51.844;19.246;2022-07-06T04:51:47;5.40;;;2.67;;
32727;SDS011;55292;51.844;19.246;2022-07-06T04:56:49;5.38;;;2.53;;
32727;SDS011;55292;51.844;19.246;2022-07-06T05:01:53;5.43;;;2.03;;
32727;SDS011;55292;51.844;19.246;2022-07-06T05:06:56;3.30;;;2.15;;
32727;SDS011;55292;51.844;19.246;2022-07-06T05:12:02;3.80;;;1.77;;
32727;SDS011;55292;51.844;19.246;2022-07-06T05:17:05;4.47;;;1.98;;
32727;SDS011;55292;51.844;19.246;2022-07-06T05:22:08;4.35;;;1.70;;
32727;SDS011;55292;51.844;19.246;2022-07-06T05:27:22;2.38;;;1.80;;
32727;SDS011;55292;51.844;19.246;2022-07-06T05:32:25;2.05;;;1.60;;
32727;SDS011;55292;51.844;19.246;2022-07-06T05:37:27;4.22;;;1.77;;
32727;SDS011;55292;51.844;19.246;2022-07-06T05:42:30;7.03;;;2.03;;
32727;SDS011;55292;51.844;19.246;2022-07-06T05:47:33;5.20;;;1.80;;
32727;SDS011;55292;51.844;19.246;2022-07-06T05:52:58;4.25;;;1.90;;
32727;SDS011;55292;51.844;19.246;2022-07-06T05:58:13;5.25;;;2.05;;
32727;SDS011;55292;51.844;19.246;2022-07-06T06:03:17;2.85;;;2.08;;
32727;SDS011;55292;51.844;19.246;2022-07-06T06:08:22;6.05;;;2.22;;
32727;SDS011;55292;51.844;19.246;2022-07-06T06:13:26;6.10;;;2.20;;
32727;SDS011;55292;51.844;19.246;2022-07-06T06:18:29;5.78;;;2.30;;
32727;SDS011;55292;51.844;19.246;2022-07-06T06:28:39;4.57;;;2.70;;
32727;SDS011;55292;51.844;19.246;2022-07-06T06:33:43;4.13;;;2.63;;
32727;SDS011;55292;51.844;19.246;2022-07-06T06:38:46;6.43;;;2.35;;
32727;SDS011;55292;51.844;19.246;2022-07-06T06:43:57;4.28;;;2.53;;
32727;SDS011;55292;51.844;19.246;2022-07-06T06:49:03;3.40;;;2.33;;
32727;SDS011;55292;51.844;19.246;2022-07-06T06:54:07;4.00;;;2.10;;
32727;SDS011;55292;51.844;19.246;2022-07-06T06:59:10;4.40;;;2.35;;
32727;SDS011;55292;51.844;19.246;2022-07-06T07:04:18;4.28;;;2.60;;
32727;SDS011;55292;51.844;19.246;2022-07-06T07:09:21;3.35;;;2.45;;
32727;SDS011;55292;51.844;19.246;2022-07-06T07:14:24;4.28;;;2.40;;
32727;SDS011;55292;51.844;19.246;2022-07-06T07:19:26;5.75;;;2.25;;
32727;SDS011;55292;51.844;19.246;2022-07-06T07:24:29;3.47;;;2.15;;
32727;SDS011;55292;51.844;19.246;2022-07-06T07:29:32;4.97;;;1.90;;
32727;SDS011;55292;51.844;19.246;2022-07-06T07:34:34;2.42;;;1.95;;
32727;SDS011;55292;51.844;19.246;2022-07-06T07:39:37;4.15;;;1.90;;
32727;SDS011;55292;51.844;19.246;2022-07-06T07:44:39;6.57;;;1.95;;
32727;SDS011;55292;51.844;19.246;2022-07-06T07:49:42;3.22;;;1.70;;
32727;SDS011;55292;51.844;19.246;2022-07-06T07:54:45;3.00;;;1.65;;
32727;SDS011;55292;51.844;19.246;2022-07-06T07:59:58;2.92;;;1.60;;
32727;SDS011;55292;51.844;19.246;2022-07-06T08:05:01;3.47;;;2.00;;
32727;SDS011;55292;51.844;19.246;2022-07-06T08:10:04;3.70;;;1.88;;
32727;SDS011;55292;51.844;19.246;2022-07-06T08:15:08;4.63;;;2.00;;
32727;SDS011;55292;51.844;19.246;2022-07-06T08:20:10;7.40;;;2.92;;
32727;SDS011;55292;51.844;19.246;2022-07-06T08:25:14;2.55;;;2.20;;
32727;SDS011;55292;51.844;19.246;2022-07-06T08:30:16;3.45;;;2.17;;
32727;SDS011;55292;51.844;19.246;2022-07-06T08:35:19;3.28;;;2.05;;
32727;SDS011;55292;51.844;19.246;2022-07-06T08:40:22;2.35;;;1.30;;
32727;SDS011;55292;51.844;19.246;2022-07-06T08:45:25;2.92;;;1.40;;
32727;SDS011;55292;51.844;19.246;2022-07-06T08:50:28;3.72;;;1.17;;
32727;SDS011;55292;51.844;19.246;2022-07-06T08:55:31;3.67;;;1.20;;
32727;SDS011;55292;51.844;19.246;2022-07-06T09:00:35;2.40;;;1.27;;
32727;SDS011;55292;51.844;19.246;2022-07-06T09:05:39;5.35;;;1.13;;
32727;SDS011;55292;51.844;19.246;2022-07-06T09:10:42;1.52;;;1.00;;
32727;SDS011;55292;51.844;19.246;2022-07-06T09:15:45;1.10;;;0.98;;
32727;SDS011;55292;51.844;19.246;2022-07-06T09:20:47;3.35;;;1.40;;
32727;SDS011;55292;51.844;19.246;2022-07-06T09:25:50;1.85;;;1.33;;
32727;SDS011;55292;51.844;19.246;2022-07-06T09:30:54;2.90;;;0.90;;
32727;SDS011;55292;51.844;19.246;2022-07-06T09:36:01;2.65;;;1.10;;
32727;SDS011;55292;51.844;19.246;2022-07-06T09:41:05;3.40;;;1.17;;
32727;SDS011;55292;51.844;19.246;2022-07-06T09:46:07;2.15;;;1.23;;
32727;SDS011;55292;51.844;19.246;2022-07-06T09:51:10;1.98;;;1.25;;
32727;SDS011;55292;51.844;19.246;2022-07-06T09:56:17;1.35;;;0.90;;
32727;SDS011;55292;51.844;19.246;2022-07-06T10:01:29;5.53;;;1.90;;
32727;SDS011;55292;51.844;19.246;2022-07-06T10:06:36;6.10;;;1.70;;
32727;SDS011;55292;51.844;19.246;2022-07-06T10:11:39;7.32;;;1.90;;
32727;SDS011;55292;51.844;19.246;2022-07-06T10:16:44;6.32;;;2.00;;
32727;SDS011;55292;51.844;19.246;2022-07-06T10:21:48;4.28;;;1.80;;
32727;SDS011;55292;51.844;19.246;2022-07-06T10:26:53;8.75;;;1.80;;
32727;SDS011;55292;51.844;19.246;2022-07-06T10:31:57;5.00;;;1.63;;
32727;SDS011;55292;51.844;19.246;2022-07-06T10:37:00;3.88;;;2.00;;
32727;SDS011;55292;51.844;19.246;2022-07-06T10:42:04;2.88;;;1.83;;
32727;SDS011;55292;51.844;19.246;2022-07-06T10:47:07;4.32;;;1.80;;
32727;SDS011;55292;51.844;19.246;2022-07-06T10:52:10;3.30;;;1.70;;
32727;SDS011;55292;51.844;19.246;2022-07-06T10:57:12;3.83;;;1.80;;
32727;SDS011;55292;51.844;19.246;2022-07-06T11:02:21;3.00;;;1.70;;
32727;SDS011;55292;51.844;19.246;2022-07-06T11:07:25;8.43;;;1.55;;
32727;SDS011;55292;51.844;19.246;2022-07-06T11:17:37;4.65;;;1.65;;
32727;SDS011;55292;51.844;19.246;2022-07-06T11:22:39;1.58;;;1.40;;
32727;SDS011;55292;51.844;19.246;2022-07-06T11:27:42;2.05;;;1.30;;
32727;SDS011;55292;51.844;19.246;2022-07-06T11:32:47;1.92;;;1.40;;
32727;SDS011;55292;51.844;19.246;2022-07-06T11:37:49;2.55;;;1.48;;
32727;SDS011;55292;51.844;19.246;2022-07-06T11:42:55;2.50;;;1.38;;
32727;SDS011;55292;51.844;19.246;2022-07-06T11:48:10;3.58;;;1.50;;
32727;SDS011;55292;51.844;19.246;2022-07-06T11:53:14;2.40;;;1.38;;
32727;SDS011;55292;51.844;19.246;2022-07-06T11:58:18;2.38;;;1.20;;
32727;SDS011;55292;51.844;19.246;2022-07-06T12:03:26;3.58;;;2.10;;
32727;SDS011;55292;51.844;19.246;2022-07-06T12:08:28;3.17;;;1.50;;
32727;SDS011;55292;51.844;19.246;2022-07-06T12:13:35;3.50;;;1.20;;
32727;SDS011;55292;51.844;19.246;2022-07-06T12:18:41;2.35;;;1.40;;
32727;SDS011;55292;51.844;19.246;2022-07-06T12:23:46;1.95;;;1.40;;
32727;SDS011;55292;51.844;19.246;2022-07-06T12:29:03;3.95;;;1.83;;
32727;SDS011;55292;51.844;19.246;2022-07-06T12:34:21;2.72;;;1.90;;
32727;SDS011;55292;51.844;19.246;2022-07-06T12:39:26;5.15;;;2.08;;
32727;SDS011;55292;51.844;19.246;2022-07-06T12:44:30;6.95;;;2.38;;
32727;SDS011;55292;51.844;19.246;2022-07-06T12:49:34;4.43;;;1.98;;
32727;SDS011;55292;51.844;19.246;2022-07-06T13:05:00;5.07;;;1.60;;
32727;SDS011;55292;51.844;19.246;2022-07-06T13:10:08;3.83;;;1.63;;
32727;SDS011;55292;51.844;19.246;2022-07-06T13:15:12;2.40;;;1.60;;
32727;SDS011;55292;51.844;19.246;2022-07-06T13:20:15;2.67;;;1.70;;
32727;SDS011;55292;51.844;19.246;2022-07-06T13:25:19;3.08;;;1.52;;
32727;SDS011;55292;51.844;19.246;2022-07-06T13:30:22;2.80;;;1.30;;
32727;SDS011;55292;51.844;19.246;2022-07-06T13:35:27;3.00;;;1.60;;
32727;SDS011;55292;51.844;19.246;2022-07-06T13:40:30;2.65;;;1.40;;
32727;SDS011;55292;51.844;19.246;2022-07-06T13:45:32;1.70;;;1.60;;
32727;SDS011;55292;51.844;19.246;2022-07-06T13:50:35;1.85;;;1.67;;
32727;SDS011;55292;51.844;19.246;2022-07-06T13:55:38;2.92;;;1.38;;
32727;SDS011;55292;51.844;19.246;2022-07-06T14:00:40;4.45;;;1.88;;
32727;SDS011;55292;51.844;19.246;2022-07-06T14:05:43;2.22;;;1.63;;
32727;SDS011;55292;51.844;19.246;2022-07-06T14:10:46;3.38;;;1.70;;
32727;SDS011;55292;51.844;19.246;2022-07-06T14:15:49;3.33;;;1.75;;
32727;SDS011;55292;51.844;19.246;2022-07-06T14:20:52;3.53;;;2.03;;
32727;SDS011;55292;51.844;19.246;2022-07-06T14:25:55;2.72;;;1.70;;
32727;SDS011;55292;51.844;19.246;2022-07-06T14:30:59;5.55;;;2.05;;
32727;SDS011;55292;51.844;19.246;2022-07-06T14:36:03;1.98;;;1.73;;
32727;SDS011;55292;51.844;19.246;2022-07-06T14:41:07;1.77;;;1.45;;
32727;SDS011;55292;51.844;19.246;2022-07-06T14:46:09;2.65;;;1.70;;
32727;SDS011;55292;51.844;19.246;2022-07-06T14:51:22;1.75;;;1.63;;
32727;SDS011;55292;51.844;19.246;2022-07-06T14:56:25;1.52;;;1.42;;
32727;SDS011;55292;51.844;19.246;2022-07-06T15:01:27;1.60;;;1.50;;
32727;SDS011;55292;51.844;19.246;2022-07-06T15:06:30;1.77;;;1.38;;
32727;SDS011;55292;51.844;19.246;2022-07-06T15:11:53;1.20;;;1.10;;
32727;SDS011;55292;51.844;19.246;2022-07-06T15:16:56;1.45;;;1.20;;
32727;SDS011;55292;51.844;19.246;2022-07-06T15:22:00;1.90;;;1.17;;
32727;SDS011;55292;51.844;19.246;2022-07-06T15:27:03;1.15;;;1.05;;
32727;SDS011;55292;51.844;19.246;2022-07-06T15:32:06;3.22;;;1.30;;
32727;SDS011;55292;51.844;19.246;2022-07-06T15:37:09;1.90;;;1.50;;
32727;SDS011;55292;51.844;19.246;2022-07-06T15:42:12;2.17;;;1.30;;
32727;SDS011;55292;51.844;19.246;2022-07-06T15:47:14;0.93;;;0.93;;
32727;SDS011;55292;51.844;19.246;2022-07-06T15:52:17;1.33;;;1.17;;
32727;SDS011;55292;51.844;19.246;2022-07-06T15:57:20;1.83;;;1.55;;
32727;SDS011;55292;51.844;19.246;2022-07-06T16:02:23;2.13;;;1.35;;
32727;SDS011;55292;51.844;19.246;2022-07-06T16:07:26;1.45;;;1.30;;
32727;SDS011;55292;51.844;19.246;2022-07-06T16:12:48;2.50;;;1.35;;
32727;SDS011;55292;51.844;19.246;2022-07-06T16:17:53;1.77;;;1.65;;
32727;SDS011;55292;51.844;19.246;2022-07-06T16:22:56;3.00;;;1.40;;
32727;SDS011;55292;51.844;19.246;2022-07-06T16:27:58;6.57;;;1.63;;
32727;SDS011;55292;51.844;19.246;2022-07-06T16:33:01;1.92;;;1.42;;
32727;SDS011;55292;51.844;19.246;2022-07-06T16:38:04;1.98;;;1.70;;
32727;SDS011;55292;51.844;19.246;2022-07-06T16:43:07;2.17;;;1.63;;
32727;SDS011;55292;51.844;19.246;2022-07-06T16:48:09;2.92;;;1.95;;
32727;SDS011;55292;51.844;19.246;2022-07-06T16:53:12;1.55;;;1.23;;
32727;SDS011;55292;51.844;19.246;2022-07-06T16:58:25;2.95;;;1.80;;
32727;SDS011;55292;51.844;19.246;2022-07-06T17:03:28;2.17;;;1.80;;
32727;SDS011;55292;51.844;19.246;2022-07-06T17:08:31;3.13;;;1.60;;
32727;SDS011;55292;51.844;19.246;2022-07-06T17:13:35;2.65;;;1.80;;
32727;SDS011;55292;51.844;19.246;2022-07-06T17:18:38;2.60;;;1.60;;
32727;SDS011;55292;51.844;19.246;2022-07-06T17:23:41;2.75;;;1.58;;
32727;SDS011;55292;51.844;19.246;2022-07-06T17:28:43;1.83;;;1.55;;
32727;SDS011;55292;51.844;19.246;2022-07-06T17:33:46;4.03;;;1.58;;
32727;SDS011;55292;51.844;19.246;2022-07-06T17:38:48;3.60;;;2.10;;
32727;SDS011;55292;51.844;19.246;2022-07-06T17:43:51;3.40;;;2.03;;
32727;SDS011;55292;51.844;19.246;2022-07-06T17:48:54;5.53;;;2.05;;
32727;SDS011;55292;51.844;19.246;2022-07-06T17:53:57;3.35;;;1.90;;
32727;SDS011;55292;51.844;19.246;2022-07-06T17:58:59;4.43;;;2.20;;
32727;SDS011;55292;51.844;19.246;2022-07-06T18:04:02;3.83;;;2.08;;
32727;SDS011;55292;51.844;19.246;2022-07-06T18:09:04;5.68;;;2.30;;
32727;SDS011;55292;51.844;19.246;2022-07-06T18:14:08;5.38;;;2.42;;
32727;SDS011;55292;51.844;19.246;2022-07-06T18:19:11;3.22;;;2.10;;
32727;SDS011;55292;51.844;19.246;2022-07-06T18:24:14;10.43;;;8.02;;
32727;SDS011;55292;51.844;19.246;2022-07-06T18:29:17;3.50;;;3.20;;
32727;SDS011;55292;51.844;19.246;2022-07-06T18:34:19;9.35;;;2.78;;
32727;SDS011;55292;51.844;19.246;2022-07-06T18:39:22;4.53;;;2.42;;
32727;SDS011;55292;51.844;19.246;2022-07-06T18:44:26;2.47;;;2.10;;
32727;SDS011;55292;51.844;19.246;2022-07-06T18:49:28;3.47;;;2.80;;
32727;SDS011;55292;51.844;19.246;2022-07-06T18:54:31;3.60;;;2.53;;
32727;SDS011;55292;51.844;19.246;2022-07-06T18:59:34;5.65;;;4.32;;
32727;SDS011;55292;51.844;19.246;2022-07-06T19:04:44;3.33;;;2.17;;
32727;SDS011;55292;51.844;19.246;2022-07-06T19:09:46;4.00;;;2.10;;
32727;SDS011;55292;51.844;19.246;2022-07-06T19:14:49;2.70;;;2.03;;
32727;SDS011;55292;51.844;19.246;2022-07-06T19:19:54;2.15;;;1.30;;
32727;SDS011;55292;51.844;19.246;2022-07-06T19:24:57;2.95;;;1.38;;
32727;SDS011;55292;51.844;19.246;2022-07-06T19:29:59;1.92;;;1.40;;
32727;SDS011;55292;51.844;19.246;2022-07-06T19:35:03;2.28;;;1.08;;
32727;SDS011;55292;51.844;19.246;2022-07-06T19:40:06;1.52;;;1.02;;
32727;SDS011;55292;51.844;19.246;2022-07-06T19:45:09;2.25;;;1.30;;
32727;SDS011;55292;51.844;19.246;2022-07-06T19:50:11;1.67;;;0.93;;
32727;SDS011;55292;51.844;19.246;2022-07-06T19:55:16;4.20;;;1.30;;
32727;SDS011;55292;51.844;19.246;2022-07-06T20:00:19;1.73;;;1.10;;
32727;SDS011;55292;51.844;19.246;2022-07-06T20:05:22;1.50;;;1.10;;
32727;SDS011;55292;51.844;19.246;2022-07-06T20:10:24;1.63;;;1.40;;
32727;SDS011;55292;51.844;19.246;2022-07-06T20:15:27;3.05;;;1.20;;
32727;SDS011;55292;51.844;19.246;2022-07-06T20:20:30;2.22;;;1.30;;
32727;SDS011;55292;51.844;19.246;2022-07-06T20:25:34;1.75;;;1.10;;
32727;SDS011;55292;51.844;19.246;2022-07-06T20:30:37;5.82;;;2.15;;
32727;SDS011;55292;51.844;19.246;2022-07-06T20:35:40;5.50;;;1.77;;
32727;SDS011;55292;51.844;19.246;2022-07-06T20:40:43;3.03;;;1.40;;
32727;SDS011;55292;51.844;19.246;2022-07-06T20:45:45;4.05;;;1.80;;
32727;SDS011;55292;51.844;19.246;2022-07-06T20:50:48;3.42;;;2.00;;
32727;SDS011;55292;51.844;19.246;2022-07-06T20:55:50;2.47;;;1.75;;
32727;SDS011;55292;51.844;19.246;2022-07-06T21:00:53;2.33;;;1.48;;
32727;SDS011;55292;51.844;19.246;2022-07-06T21:05:56;3.35;;;1.25;;
32727;SDS011;55292;51.844;19.246;2022-07-06T21:10:59;4.32;;;1.65;;
32727;SDS011;55292;51.844;19.246;2022-07-06T21:16:01;2.75;;;1.17;;
32727;SDS011;55292;51.844;19.246;2022-07-06T21:21:04;3.38;;;1.40;;
32727;SDS011;55292;51.844;19.246;2022-07-06T21:26:08;5.30;;;1.60;;
32727;SDS011;55292;51.844;19.246;2022-07-06T21:31:11;3.22;;;1.67;;
32727;SDS011;55292;51.844;19.246;2022-07-06T21:36:14;1.60;;;1.50;;
32727;SDS011;55292;51.844;19.246;2022-07-06T21:41:17;5.47;;;1.77;;
32727;SDS011;55292;51.844;19.246;2022-07-06T21:46:20;2.13;;;1.35;;
32727;SDS011;55292;51.844;19.246;2022-07-06T21:51:22;3.03;;;1.70;;
32727;SDS011;55292;51.844;19.246;2022-07-06T21:56:25;2.00;;;1.30;;
32727;SDS011;55292;51.844;19.246;2022-07-06T22:01:27;6.53;;;1.60;;
32727;SDS011;55292;51.844;19.246;2022-07-06T22:06:30;5.18;;;2.67;;
32727;SDS011;55292;51.844;19.246;2022-07-06T22:11:32;2.60;;;1.80;;
32727;SDS011;55292;51.844;19.246;2022-07-06T22:16:44;4.15;;;1.90;;
32727;SDS011;55292;51.844;19.246;2022-07-06T22:21:47;3.38;;;2.03;;
32727;SDS011;55292;51.844;19.246;2022-07-06T22:26:50;2.88;;;1.70;;
32727;SDS011;55292;51.844;19.246;2022-07-06T22:31:52;3.00;;;1.67;;
32727;SDS011;55292;51.844;19.246;2022-07-06T22:36:55;2.67;;;2.30;;
32727;SDS011;55292;51.844;19.246;2022-07-06T22:41:58;4.60;;;2.00;;
32727;SDS011;55292;51.844;19.246;2022-07-06T22:47:00;6.30;;;2.33;;
32727;SDS011;55292;51.844;19.246;2022-07-06T22:52:03;2.47;;;2.00;;
32727;SDS011;55292;51.844;19.246;2022-07-06T22:57:06;6.10;;;2.58;;
32727;SDS011;55292;51.844;19.246;2022-07-06T23:02:09;3.47;;;2.58;;
32727;SDS011;55292;51.844;19.246;2022-07-06T23:07:11;2.80;;;2.40;;
32727;SDS011;55292;51.844;19.246;2022-07-06T23:12:14;3.38;;;2.03;;
32727;SDS011;55292;51.844;19.246;2022-07-06T23:17:22;6.95;;;2.47;;
32727;SDS011;55292;51.844;19.246;2022-07-06T23:22:25;4.30;;;2.50;;
32727;SDS011;55292;51.844;19.246;2022-07-06T23:27:27;5.20;;;2.40;;
32727;SDS011;55292;51.844;19.246;2022-07-06T23:32:30;5.03;;;2.60;;
32727;SDS011;55292;51.844;19.246;2022-07-06T23:37:34;5.03;;;1.95;;
32727;SDS011;55292;51.844;19.246;2022-07-06T23:42:37;3.42;;;2.20;;
32727;SDS011;55292;51.844;19.246;2022-07-06T23:47:40;5.15;;;2.10;;
32727;SDS011;55292;51.844;19.246;2022-07-06T23:52:42;3.20;;;2.65;;
32727;SDS011;55292;51.844;19.246;2022-07-06T23:57:45;8.65;;;2.85;;
